Time;durP1;ratioP1;P1;durP2;ratioP2;P2;SDS_P1;SDS_P2;PMS_P1;PMS_P2;Temp;Humidity;BMP_temperature;BMP_pressure;BME280_temperature;BME280_humidity;BME280_pressure;Samples;Min_cycle;Max_cycle;Signal;HPM_P1;HPM_P2
2024/04/19 05:20:50;;;;;;;;;;;;;;;;;;5412879;26;19925;-43
2024/04/19 05:23:16;;;;;;;;;;;;;;;;;;5416630;26;19928;-43
2024/04/19 05:25:41;;;;;;;;;;;;;;;;;;5416357;26;19991;-42
2024/04/19 05:28:07;;;;;;;;;;;;;;;;;;5416300;26;19929;-43
2024/04/19 05:30:33;;;;;;;;;;;;;;;;;;5416307;26;20352;-41
2024/04/19 05:32:59;;;;;;;;;;;;;;;;;;5416166;26;19936;-42
2024/04/19 05:35:26;;;;;;;;;;;;;;;;;;5416189;26;19939;-42
2024/04/19 05:37:52;;;;;;;;;;;;;;;;;;5416269;26;20055;-42
2024/04/19 05:40:19;;;;;;;;;;;;;;;;;;5416459;26;20347;-41
2024/04/19 05:42:45;;;;;;;;;;;;;;;;;;5416178;26;19929;-42
2024/04/19 05:45:11;;;;;;;;;;;;;;;;;;5416275;26;19929;-42
2024/04/19 05:47:37;;;;;;;;;;;;;;;;;;5415977;26;20359;-42
2024/04/19 05:50:02;;;;;;;;;;;;;;;;;;5415593;26;19941;-41
2024/04/19 05:52:29;;;;;;;;;;;;;;;;;;5399410;26;19929;-42
2024/04/19 05:54:55;;;;;;;;;;;;;;;;;;5408721;26;19929;-42
2024/04/19 05:57:21;;;;;;;;;;;;;;;;;;5410566;26;19929;-42
2024/04/19 05:59:46;;;;;;;;;;;;;;;;;;5427547;26;19937;-44
2024/04/19 06:02:12;;;;;;;;;;;;;;;;;;5415778;26;19960;-42
2024/04/19 06:04:38;;;;;;;;;;;;;;;;;;5415858;26;19929;-43
2024/04/19 06:07:04;;;;;;;;;;;;;;;;;;5427090;26;19936;-43
2024/04/19 06:09:30;;;;;;;;;;;;;;;;;;5451649;26;20469;-42
2024/04/19 06:11:59;;;;;;;;;;;;;;;;;;5425654;26;19937;-43
2024/04/19 06:14:25;;;;;;;;;;;;;;;;;;5403465;26;19936;-43
2024/04/19 06:16:51;;;;;;;;;;;;;;;;;;5388814;26;19969;-42
2024/04/19 06:19:16;;;;;;;;;;;;;;;;;;5408408;26;20292;-43
2024/04/19 06:21:42;;;;;;;;;;;;;;;;;;5415055;26;19929;-44
2024/04/19 06:24:08;;;;;;;;;;;;;;;;;;5415145;26;20370;-43
2024/04/19 06:26:34;;;;;;;;;;;;;;;;;;5415188;26;19929;-43
2024/04/19 06:29:00;;;;;;;;;;;;;;;;;;5421373;26;19929;-44
2024/04/19 06:31:26;;;;;;;;;;;;;;;;;;5412085;26;19954;-45
2024/04/19 06:33:52;;;;;;;;;;;;;;;;;;5414286;26;19937;-44
2024/04/19 06:36:19;;;;;;;;;;;;;;;;;;5414923;26;19929;-42
2024/04/19 06:38:45;;;;;;;;;;;;;;;;;;5415139;26;19957;-43
2024/04/19 06:41:11;;;;;;;;;;;;;;;;;;5428284;26;19937;-43
2024/04/19 06:43:37;;;;;;;;;;;;;;;;;;5450851;26;19928;-43
2024/04/19 06:46:03;;;;;;;;;;;;;;;;;;5435210;26;19929;-42
2024/04/19 06:48:29;;;;;;;;;;;;;;;;;;5413496;26;20363;-43
2024/04/19 06:50:55;;;;;;;;;;;;;;;;;;5413840;26;19936;-43
2024/04/19 06:53:21;;;;;;;;;;;;;;;;;;5413207;26;19937;-43
2024/04/19 06:55:48;;;;;;;;;;;;;;;;;;5411767;26;20258;-42
2024/04/19 06:58:14;;;;;;;;;;;;;;;;;;5412067;26;19940;-42
2024/04/19 07:00:39;;;;;;;;;;;;;;;;;;5411874;26;19929;-43
2024/04/19 07:03:05;;;;;;;;;;;;;;;;;;5412188;26;19929;-44
2024/04/19 07:05:31;;;;;;;;;;;;;;;;;;5411935;26;19940;-43
2024/04/19 07:07:57;;;;;;;;;;;;;;;;;;5413228;26;20447;-45
2024/04/19 07:10:23;;;;;;;;;;;;;;;;;;5414870;26;19936;-44
2024/04/19 07:12:49;;;;;;;;;;;;;;;;;;5414919;26;19928;-44
2024/04/19 07:15:15;;;;;;;;;;;;;;;;;;5414809;26;19937;-44
2024/04/19 07:17:41;;;;;;;;;;;;;;;;;;5414847;26;20358;-44
2024/04/19 07:20:07;;;;;;;;;;;;;;;;;;5414139;26;19929;-43
2024/04/19 07:22:33;;;;;;;;;;;;;;;;;;5412953;26;19929;-43
2024/04/19 07:24:59;;;;;;;;;;;;;;;;;;5414390;26;19936;-45
2024/04/19 07:27:26;;;;;;;;;;;;;;;;;;5414799;26;19953;-43
2024/04/19 07:29:52;;;;;;;;;;;;;;;;;;5414448;26;19929;-44
2024/04/19 07:32:20;;;;;;;;;;;;;;;;;;5414865;26;19929;-45
2024/04/19 07:34:46;;;;;;;;;;;;;;;;;;5413693;26;19940;-45
2024/04/19 07:37:12;;;;;;;;;;;;;;;;;;5413461;26;20336;-43
2024/04/19 07:39:38;;;;;;;;;;;;;;;;;;5413646;26;19929;-43
2024/04/19 07:42:04;;;;;;;;;;;;;;;;;;5414556;26;19929;-45
2024/04/19 07:44:29;;;;;;;;;;;;;;;;;;5414128;26;19998;-42
2024/04/19 07:46:55;;;;;;;;;;;;;;;;;;5411795;26;19944;-43
2024/04/19 07:49:21;;;;;;;;;;;;;;;;;;5382278;26;20027;-43
2024/04/19 07:51:48;;;;;;;;;;;;;;;;;;5414096;26;19929;-45
2024/04/19 07:54:13;;;;;;;;;;;;;;;;;;5413930;26;20290;-43
2024/04/19 07:56:41;;;;;;;;;;;;;;;;;;5413823;26;19936;-44
2024/04/19 07:59:07;;;;;;;;;;;;;;;;;;5414202;26;19929;-43
2024/04/19 08:01:33;;;;;;;;;;;;;;;;;;5414057;26;20369;-43
2024/04/19 08:03:59;;;;;;;;;;;;;;;;;;5413999;26;19936;-43
2024/04/19 08:06:25;;;;;;;;;;;;;;;;;;5413527;26;20446;-43
2024/04/19 08:08:51;;;;;;;;;;;;;;;;;;5413853;26;19938;-43
2024/04/19 08:11:17;;;;;;;;;;;;;;;;;;5413608;26;20010;-43
2024/04/19 08:13:42;;;;;;;;;;;;;;;;;;5413612;26;19944;-44
2024/04/19 08:16:08;;;;;;;;;;;;;;;;;;5412793;26;20277;-44
2024/04/19 08:18:34;;;;;;;;;;;;;;;;;;5413216;26;19936;-44
2024/04/19 08:21:00;;;;;;;;;;;;;;;;;;5412973;26;19937;-44
2024/04/19 08:23:26;;;;;;;;;;;;;;;;;;5412989;26;20363;-44
2024/04/19 08:25:52;;;;;;;;;;;;;;;;;;5412801;26;19929;-43
2024/04/19 08:28:18;;;;;;;;;;;;;;;;;;5412877;26;19937;-44
2024/04/19 08:30:44;;;;;;;;;;;;;;;;;;5413090;26;19929;-43
2024/04/19 08:33:10;;;;;;;;;;;;;;;;;;5413042;26;19937;-43
2024/04/19 08:35:35;;;;;;;;;;;;;;;;;;5416069;26;19929;-44
2024/04/19 08:38:01;;;;;;;;;;;;;;;;;;5414733;26;19998;-43
2024/04/19 08:40:29;;;;;;;;;;;;;;;;;;5416520;26;20278;-47
2024/04/19 08:42:54;;;;;;;;;;;;;;;;;;5416457;26;20416;-45
2024/04/19 08:45:20;;;;;;;;;;;;;;;;;;5416274;26;20423;-45
2024/04/19 08:47:46;;;;;;;;;;;;;;;;;;5413729;26;19929;-46
2024/04/19 08:50:12;;;;;;;;;;;;;;;;;;5413359;26;20253;-44
2024/04/19 08:52:38;;;;;;;;;;;;;;;;;;5415948;26;19929;-43
2024/04/19 08:55:06;;;;;;;;;;;;;;;;;;5416056;26;19929;-44
2024/04/19 08:57:32;;;;;;;;;;;;;;;;;;5414649;26;19929;-47
2024/04/19 08:59:57;;;;;;;;;;;;;;;;;;5416352;26;19940;-44
2024/04/19 09:02:23;;;;;;;;;;;;;;;;;;5416294;26;19941;-44
2024/04/19 09:04:49;;;;;;;;;;;;;;;;;;5415695;26;19929;-45
2024/04/19 09:07:15;;;;;;;;;;;;;;;;;;5416153;26;19929;-44
2024/04/19 09:09:41;;;;;;;;;;;;;;;;;;5400765;26;20275;-45
2024/04/19 09:12:08;;;;;;;;;;;;;;;;;;5396537;26;19934;-44
2024/04/19 09:14:34;;;;;;;;;;;;;;;;;;5392845;26;19929;-45
2024/04/19 09:17:00;;;;;;;;;;;;;;;;;;5382070;26;19936;-46
2024/04/19 09:19:28;;;;;;;;;;;;;;;;;;5380510;26;19941;-47
2024/04/19 09:21:54;;;;;;;;;;;;;;;;;;5380492;26;19937;-46
2024/04/19 09:24:20;;;;;;;;;;;;;;;;;;5402717;26;20371;-45
2024/04/19 09:26:46;;;;;;;;;;;;;;;;;;5415357;26;19929;-43
2024/04/19 09:29:11;;;;;;;;;;;;;;;;;;5416127;26;19932;-44
2024/04/19 09:31:38;;;;;;;;;;;;;;;;;;5415695;26;20012;-44
2024/04/19 09:34:04;;;;;;;;;;;;;;;;;;5415925;26;19929;-43
2024/04/19 09:36:30;;;;;;;;;;;;;;;;;;5415897;26;20258;-45
2024/04/19 09:38:56;;;;;;;;;;;;;;;;;;5415757;26;20358;-45
2024/04/19 09:41:21;;;;;;;;;;;;;;;;;;5415583;26;19941;-44
2024/04/19 09:43:51;;;;;;;;;;;;;;;;;;5415882;26;19998;-44
2024/04/19 09:46:17;;;;;;;;;;;;;;;;;;5414120;26;20373;-45
2024/04/19 09:48:43;;;;;;;;;;;;;;;;;;5415460;26;19929;-43
2024/04/19 09:51:09;;;;;;;;;;;;;;;;;;5415712;26;20513;-43
2024/04/19 09:53:35;;;;;;;;;;;;;;;;;;5415723;26;19940;-44
2024/04/19 09:56:01;;;;;;;;;;;;;;;;;;5415780;26;19930;-46
2024/04/19 09:58:27;;;;;;;;;;;;;;;;;;5415314;26;19929;-43
2024/04/19 10:00:53;;;;;;;;;;;;;;;;;;5415524;26;19929;-44
2024/04/19 10:03:21;;;;;;;;;;;;;;;;;;5414547;26;20359;-43
2024/04/19 10:05:47;;;;;;;;;;;;;;;;;;5415744;26;20065;-44
2024/04/19 10:08:13;;;;;;;;;;;;;;;;;;5415604;26;19932;-43
2024/04/19 10:10:39;;;;;;;;;;;;;;;;;;5415608;26;20275;-44
2024/04/19 10:13:05;;;;;;;;;;;;;;;;;;5415776;26;19929;-43
2024/04/19 10:15:31;;;;;;;;;;;;;;;;;;5415867;26;19929;-44
2024/04/19 10:17:57;;;;;;;;;;;;;;;;;;5415481;26;20426;-44
2024/04/19 10:20:23;;;;;;;;;;;;;;;;;;5388101;26;19936;-44
2024/04/19 10:22:49;;;;;;;;;;;;;;;;;;5412018;26;20362;-44
2024/04/19 10:25:15;;;;;;;;;;;;;;;;;;5415590;26;19929;-44
2024/04/19 10:27:40;;;;;;;;;;;;;;;;;;5414957;26;19929;-42
2024/04/19 10:30:08;;;;;;;;;;;;;;;;;;5415710;26;19937;-43
2024/04/19 10:32:33;;;;;;;;;;;;;;;;;;5415196;26;19930;-43
2024/04/19 10:34:59;;;;;;;;;;;;;;;;;;5415317;26;19935;-44
2024/04/19 10:37:25;;;;;;;;;;;;;;;;;;5415331;26;20262;-43
2024/04/19 10:39:51;;;;;;;;;;;;;;;;;;5415461;26;19929;-45
2024/04/19 10:42:17;;;;;;;;;;;;;;;;;;5415299;26;19929;-45
2024/04/19 10:44:46;;;;;;;;;;;;;;;;;;5415349;26;20370;-44
2024/04/19 10:47:12;;;;;;;;;;;;;;;;;;5415599;26;19936;-44
2024/04/19 10:49:37;;;;;;;;;;;;;;;;;;5415172;26;19929;-42
2024/04/19 10:52:03;;;;;;;;;;;;;;;;;;5415215;26;20564;-45
2024/04/19 10:54:29;;;;;;;;;;;;;;;;;;5415268;26;19941;-44
2024/04/19 10:56:55;;;;;;;;;;;;;;;;;;5414576;26;19948;-47
2024/04/19 10:59:21;;;;;;;;;;;;;;;;;;5414936;26;19947;-45
2024/04/19 11:01:47;;;;;;;;;;;;;;;;;;5415191;26;19929;-44
2024/04/19 11:04:13;;;;;;;;;;;;;;;;;;5411920;26;19945;-44
2024/04/19 11:06:39;;;;;;;;;;;;;;;;;;5414495;26;19936;-45
2024/04/19 11:09:05;;;;;;;;;;;;;;;;;;5414225;26;19929;-44
2024/04/19 11:11:37;;;;;;;;;;;;;;;;;;5414540;26;19929;-50
2024/04/19 11:14:03;;;;;;;;;;;;;;;;;;5414265;26;19936;-51
2024/04/19 11:16:29;;;;;;;;;;;;;;;;;;5414504;26;19929;-51
2024/04/19 11:18:55;;;;;;;;;;;;;;;;;;5414121;26;20370;-52
2024/04/19 11:21:21;;;;;;;;;;;;;;;;;;5414932;26;19929;-52
2024/04/19 11:23:46;;;;;;;;;;;;;;;;;;5414614;26;19935;-49
2024/04/19 11:26:12;;;;;;;;;;;;;;;;;;5414701;26;19929;-52
2024/04/19 11:28:38;;;;;;;;;;;;;;;;;;5414619;26;20271;-49
2024/04/19 11:31:04;;;;;;;;;;;;;;;;;;5414739;26;19928;-51
2024/04/19 11:33:30;;;;;;;;;;;;;;;;;;5414736;26;19936;-49
2024/04/19 11:35:56;;;;;;;;;;;;;;;;;;5414091;26;19929;-48
2024/04/19 11:38:23;;;;;;;;;;;;;;;;;;5414348;26;19929;-49
2024/04/19 11:40:51;;;;;;;;;;;;;;;;;;5414415;26;19929;-51
2024/04/19 11:43:17;;;;;;;;;;;;;;;;;;5414185;26;19929;-52
2024/04/19 11:45:43;;;;;;;;;;;;;;;;;;5414053;26;20007;-52
2024/04/19 11:48:09;;;;;;;;;;;;;;;;;;5413220;26;19935;-48
2024/04/19 11:50:34;;;;;;;;;;;;;;;;;;5412915;26;20375;-51
2024/04/19 11:53:01;;;;;;;;;;;;;;;;;;5412931;26;19998;-48
2024/04/19 11:55:27;;;;;;;;;;;;;;;;;;5412954;26;19929;-52
2024/04/19 11:57:53;;;;;;;;;;;;;;;;;;5412788;26;19935;-52
2024/04/19 12:00:19;;;;;;;;;;;;;;;;;;5413038;26;19929;-52
2024/04/19 12:02:45;;;;;;;;;;;;;;;;;;5412866;26;20467;-51
2024/04/19 12:05:11;;;;;;;;;;;;;;;;;;5412738;26;19929;-48
2024/04/19 12:07:37;;;;;;;;;;;;;;;;;;5413210;26;19940;-52
2024/04/19 12:10:03;;;;;;;;;;;;;;;;;;5414444;26;19928;-51
2024/04/19 12:12:29;;;;;;;;;;;;;;;;;;5416525;26;19929;-51
2024/04/19 12:14:55;;;;;;;;;;;;;;;;;;5416197;26;20266;-48
2024/04/19 12:17:22;;;;;;;;;;;;;;;;;;5413637;26;19929;-51
2024/04/19 12:19:49;;;;;;;;;;;;;;;;;;5406871;26;19929;-49
2024/04/19 12:22:16;;;;;;;;;;;;;;;;;;5452301;26;19928;-48
2024/04/19 12:24:42;;;;;;;;;;;;;;;;;;5452460;26;20534;-52
2024/04/19 12:27:08;;;;;;;;;;;;;;;;;;5429497;26;19928;-51
2024/04/19 12:29:34;;;;;;;;;;;;;;;;;;5445322;26;19932;-50
2024/04/19 12:32:00;;;;;;;;;;;;;;;;;;5416261;26;19936;-51
2024/04/19 12:34:26;;;;;;;;;;;;;;;;;;5420657;26;20266;-53
2024/04/19 12:36:53;;;;;;;;;;;;;;;;;;5416073;26;19961;-52
2024/04/19 12:39:19;;;;;;;;;;;;;;;;;;5405230;26;20370;-51
2024/04/19 12:41:45;;;;;;;;;;;;;;;;;;5452463;26;19929;-51
2024/04/19 12:44:11;;;;;;;;;;;;;;;;;;5452069;26;19936;-51
2024/04/19 12:46:39;;;;;;;;;;;;;;;;;;5452571;26;20040;-52
2024/04/19 12:49:04;;;;;;;;;;;;;;;;;;5447538;26;19935;-49
2024/04/19 12:51:30;;;;;;;;;;;;;;;;;;5440401;26;19929;-51
2024/04/19 12:53:56;;;;;;;;;;;;;;;;;;5411154;26;19929;-52
2024/04/19 12:56:22;;;;;;;;;;;;;;;;;;5415767;26;20390;-49
2024/04/19 12:58:48;;;;;;;;;;;;;;;;;;5415383;26;20352;-50
2024/04/19 13:01:14;;;;;;;;;;;;;;;;;;5415765;26;19933;-52
2024/04/19 13:03:40;;;;;;;;;;;;;;;;;;5416260;26;19941;-52
2024/04/19 13:06:06;;;;;;;;;;;;;;;;;;5413919;26;19929;-53
2024/04/19 13:08:32;;;;;;;;;;;;;;;;;;5412673;26;20382;-48
2024/04/19 13:10:58;;;;;;;;;;;;;;;;;;5414756;26;19936;-50
2024/04/19 13:13:24;;;;;;;;;;;;;;;;;;5441952;26;19933;-53
2024/04/19 13:15:50;;;;;;;;;;;;;;;;;;5418545;26;20317;-52
2024/04/19 13:18:16;;;;;;;;;;;;;;;;;;5383909;26;19929;-50
2024/04/19 13:20:42;;;;;;;;;;;;;;;;;;5433835;26;19936;-51
2024/04/19 13:23:08;;;;;;;;;;;;;;;;;;5419192;26;19928;-51
2024/04/19 13:25:34;;;;;;;;;;;;;;;;;;5451229;26;19960;-51
2024/04/19 13:28:00;;;;;;;;;;;;;;;;;;5448212;26;20448;-49
2024/04/19 13:30:28;;;;;;;;;;;;;;;;;;5438939;26;19929;-50
2024/04/19 13:32:54;;;;;;;;;;;;;;;;;;5412828;26;19973;-51
2024/04/19 13:35:20;;;;;;;;;;;;;;;;;;5416321;26;21473;-53
2024/04/19 13:37:46;;;;;;;;;;;;;;;;;;5446255;26;19929;-51
2024/04/19 13:40:12;;;;;;;;;;;;;;;;;;5396053;26;20605;-51
2024/04/19 13:42:37;;;;;;;;;;;;;;;;;;5420929;26;19976;-52
2024/04/19 13:45:03;;;;;;;;;;;;;;;;;;5412983;26;20260;-50
2024/04/19 13:47:29;;;;;;;;;;;;;;;;;;5445576;26;19929;-49
2024/04/19 13:49:55;;;;;;;;;;;;;;;;;;5418619;26;19928;-53
2024/04/19 13:52:21;;;;;;;;;;;;;;;;;;5429334;26;19940;-49
2024/04/19 13:54:47;;;;;;;;;;;;;;;;;;5414909;26;19928;-52
2024/04/19 13:57:13;;;;;;;;;;;;;;;;;;5414827;26;19940;-53
2024/04/19 13:59:39;;;;;;;;;;;;;;;;;;5442302;26;19998;-49
2024/04/19 14:02:04;;;;;;;;;;;;;;;;;;5395124;26;19960;-51
2024/04/19 14:04:30;;;;;;;;;;;;;;;;;;5445771;26;19935;-53
2024/04/19 14:06:56;;;;;;;;;;;;;;;;;;5447032;26;20332;-51
2024/04/19 14:09:22;;;;;;;;;;;;;;;;;;5431875;26;20362;-51
2024/04/19 14:11:48;;;;;;;;;;;;;;;;;;5425261;26;19936;-49
2024/04/19 14:14:14;;;;;;;;;;;;;;;;;;5450149;26;19935;-50
2024/04/19 14:16:40;;;;;;;;;;;;;;;;;;5448960;26;20285;-52
2024/04/19 14:19:06;;;;;;;;;;;;;;;;;;5427906;26;19933;-52
2024/04/19 14:21:31;;;;;;;;;;;;;;;;;;5414096;26;19929;-50
2024/04/19 14:23:57;;;;;;;;;;;;;;;;;;5427799;26;19928;-53
2024/04/19 14:26:23;;;;;;;;;;;;;;;;;;5422644;26;19941;-49
2024/04/19 14:28:50;;;;;;;;;;;;;;;;;;5404979;26;20374;-50
2024/04/19 14:31:15;;;;;;;;;;;;;;;;;;5442561;26;20258;-52
2024/04/19 14:33:41;;;;;;;;;;;;;;;;;;5436969;26;19940;-51
2024/04/19 14:36:08;;;;;;;;;;;;;;;;;;5419029;26;19936;-49
2024/04/19 14:38:33;;;;;;;;;;;;;;;;;;5387007;26;19928;-53
2024/04/19 14:40:59;;;;;;;;;;;;;;;;;;5425489;26;20358;-53
2024/04/19 14:43:25;;;;;;;;;;;;;;;;;;5404451;26;19941;-52
2024/04/19 14:45:51;;;;;;;;;;;;;;;;;;5410405;26;19976;-51
2024/04/19 14:48:17;;;;;;;;;;;;;;;;;;5447690;26;19935;-49
2024/04/19 14:50:43;;;;;;;;;;;;;;;;;;5445237;26;19941;-51
2024/04/19 14:53:09;;;;;;;;;;;;;;;;;;5390545;26;19940;-53
2024/04/19 14:55:35;;;;;;;;;;;;;;;;;;5409496;26;20064;-52
2024/04/19 14:58:01;;;;;;;;;;;;;;;;;;5449587;26;19935;-51
2024/04/19 15:00:27;;;;;;;;;;;;;;;;;;5413825;26;20267;-52
2024/04/19 15:02:53;;;;;;;;;;;;;;;;;;5425840;26;19940;-49
2024/04/19 15:05:19;;;;;;;;;;;;;;;;;;5432199;26;19936;-51
2024/04/19 15:07:46;;;;;;;;;;;;;;;;;;5427332;26;20307;-53
2024/04/19 15:10:11;;;;;;;;;;;;;;;;;;5403185;26;19939;-52
2024/04/19 15:12:37;;;;;;;;;;;;;;;;;;5378847;26;20260;-50
2024/04/19 15:15:04;;;;;;;;;;;;;;;;;;5407271;26;20395;-52
2024/04/19 15:17:30;;;;;;;;;;;;;;;;;;5413240;26;19944;-49
2024/04/19 15:19:56;;;;;;;;;;;;;;;;;;5419701;26;19933;-51
2024/04/19 15:22:22;;;;;;;;;;;;;;;;;;5412589;26;20000;-52
2024/04/19 15:24:48;;;;;;;;;;;;;;;;;;5413829;26;19933;-53
2024/04/19 15:27:14;;;;;;;;;;;;;;;;;;5414004;26;20383;-49
2024/04/19 15:29:40;;;;;;;;;;;;;;;;;;5413247;26;19936;-52
2024/04/19 15:32:07;;;;;;;;;;;;;;;;;;5413351;26;19941;-51
2024/04/19 15:34:33;;;;;;;;;;;;;;;;;;5412246;26;19937;-53
2024/04/19 15:36:59;;;;;;;;;;;;;;;;;;5412925;26;19998;-52
2024/04/19 15:39:25;;;;;;;;;;;;;;;;;;5408874;26;19929;-51
2024/04/19 15:41:51;;;;;;;;;;;;;;;;;;5410571;26;20373;-52
2024/04/19 15:44:17;;;;;;;;;;;;;;;;;;5409966;26;19929;-51
2024/04/19 15:46:43;;;;;;;;;;;;;;;;;;5412683;26;19933;-52
2024/04/19 15:49:09;;;;;;;;;;;;;;;;;;5412870;26;20002;-51
2024/04/19 15:51:35;;;;;;;;;;;;;;;;;;5413263;26;19936;-50
2024/04/19 15:54:01;;;;;;;;;;;;;;;;;;5413114;26;19929;-52
2024/04/19 15:56:27;;;;;;;;;;;;;;;;;;5413065;26;19929;-53
2024/04/19 15:58:53;;;;;;;;;;;;;;;;;;5412813;26;19935;-53
2024/04/19 16:01:19;;;;;;;;;;;;;;;;;;5413118;26;20369;-53
2024/04/19 16:03:44;;;;;;;;;;;;;;;;;;5412809;26;19975;-53
2024/04/19 16:06:10;;;;;;;;;;;;;;;;;;5413169;26;19936;-54
2024/04/19 16:08:37;;;;;;;;;;;;;;;;;;5413101;26;20423;-50
2024/04/19 16:11:03;;;;;;;;;;;;;;;;;;5412720;26;19952;-50
2024/04/19 16:13:28;;;;;;;;;;;;;;;;;;5412916;26;20269;-51
2024/04/19 16:15:54;;;;;;;;;;;;;;;;;;5411916;26;19965;-53
2024/04/19 16:18:20;;;;;;;;;;;;;;;;;;5412873;26;19933;-54
2024/04/19 16:20:47;;;;;;;;;;;;;;;;;;5372925;26;19930;-53
2024/04/19 16:23:13;;;;;;;;;;;;;;;;;;5412943;26;20006;-53
2024/04/19 16:25:38;;;;;;;;;;;;;;;;;;5411831;26;19941;-53
2024/04/19 16:28:04;;;;;;;;;;;;;;;;;;5380548;26;19961;-54
2024/04/19 16:30:30;;;;;;;;;;;;;;;;;;5412598;26;19933;-50
2024/04/19 16:32:57;;;;;;;;;;;;;;;;;;5380575;26;19929;-53
2024/04/19 16:35:23;;;;;;;;;;;;;;;;;;5377138;26;20282;-53
2024/04/19 16:37:49;;;;;;;;;;;;;;;;;;5377245;26;19957;-54
2024/04/19 16:40:15;;;;;;;;;;;;;;;;;;5377129;26;19930;-54
2024/04/19 16:42:41;;;;;;;;;;;;;;;;;;5376897;26;19941;-54
2024/04/19 16:45:07;;;;;;;;;;;;;;;;;;5345731;26;19940;-53
2024/04/19 16:47:33;;;;;;;;;;;;;;;;;;5401682;26;19930;-54
2024/04/19 16:49:59;;;;;;;;;;;;;;;;;;5412008;26;19944;-53
2024/04/19 16:52:24;;;;;;;;;;;;;;;;;;5379999;26;19936;-53
2024/04/19 16:54:50;;;;;;;;;;;;;;;;;;5412360;26;20271;-54
2024/04/19 16:57:16;;;;;;;;;;;;;;;;;;5415813;26;19936;-54
2024/04/19 16:59:42;;;;;;;;;;;;;;;;;;5415857;26;20373;-53
2024/04/19 17:02:08;;;;;;;;;;;;;;;;;;5415407;26;19933;-53
2024/04/19 17:04:34;;;;;;;;;;;;;;;;;;5415476;26;20001;-53
2024/04/19 17:07:00;;;;;;;;;;;;;;;;;;5415598;26;19929;-53
2024/04/19 17:09:26;;;;;;;;;;;;;;;;;;5415114;26;20370;-53
2024/04/19 17:11:54;;;;;;;;;;;;;;;;;;5415450;26;19961;-54
2024/04/19 17:14:20;;;;;;;;;;;;;;;;;;5418028;26;19971;-49
2024/04/19 17:16:48;;;;;;;;;;;;;;;;;;5439649;26;19953;-53
2024/04/19 17:19:14;;;;;;;;;;;;;;;;;;5414863;26;19998;-54
2024/04/19 17:21:40;;;;;;;;;;;;;;;;;;5413898;26;19929;-53
2024/04/19 17:24:06;;;;;;;;;;;;;;;;;;5415240;26;19937;-51
2024/04/19 17:26:32;;;;;;;;;;;;;;;;;;5415279;26;20353;-49
2024/04/19 17:28:58;;;;;;;;;;;;;;;;;;5423847;26;20000;-53
2024/04/19 17:31:24;;;;;;;;;;;;;;;;;;5451284;26;19936;-52
2024/04/19 17:33:50;;;;;;;;;;;;;;;;;;5450976;26;19935;-52
2024/04/19 17:36:16;;;;;;;;;;;;;;;;;;5430644;26;19940;-50
2024/04/19 17:38:42;;;;;;;;;;;;;;;;;;5380929;26;19937;-52
2024/04/19 17:41:07;;;;;;;;;;;;;;;;;;5431096;26;20012;-53
2024/04/19 17:43:34;;;;;;;;;;;;;;;;;;5428011;26;19929;-53
2024/04/19 17:46:00;;;;;;;;;;;;;;;;;;5413296;26;19929;-53
2024/04/19 17:48:26;;;;;;;;;;;;;;;;;;5438879;26;19935;-52
2024/04/19 17:50:53;;;;;;;;;;;;;;;;;;5401354;26;19936;-52
2024/04/19 17:53:19;;;;;;;;;;;;;;;;;;5413693;26;20321;-53
2024/04/19 17:55:45;;;;;;;;;;;;;;;;;;5443977;26;19932;-53
2024/04/19 17:58:12;;;;;;;;;;;;;;;;;;5414152;26;19928;-54
2024/04/19 18:00:40;;;;;;;;;;;;;;;;;;5436277;26;20000;-52
2024/04/19 18:03:05;;;;;;;;;;;;;;;;;;5440767;26;20014;-53
2024/04/19 18:05:31;;;;;;;;;;;;;;;;;;5418039;26;19941;-52
2024/04/19 18:07:57;;;;;;;;;;;;;;;;;;5387906;26;19957;-53
2024/04/19 18:10:24;;;;;;;;;;;;;;;;;;5404726;26;20350;-53
2024/04/19 18:12:52;;;;;;;;;;;;;;;;;;5416581;26;19965;-52
2024/04/19 18:15:17;;;;;;;;;;;;;;;;;;5387702;26;19998;-54
2024/04/19 18:17:43;;;;;;;;;;;;;;;;;;5427151;26;19945;-54
2024/04/19 18:20:09;;;;;;;;;;;;;;;;;;5423153;26;19929;-53
2024/04/19 18:22:37;;;;;;;;;;;;;;;;;;5409945;26;20309;-53
2024/04/19 18:25:03;;;;;;;;;;;;;;;;;;5382873;26;19941;-53
2024/04/19 18:27:29;;;;;;;;;;;;;;;;;;5414455;26;19928;-52
2024/04/19 18:29:57;;;;;;;;;;;;;;;;;;5413852;26;19929;-53
2024/04/19 18:32:23;;;;;;;;;;;;;;;;;;5382693;26;19957;-53
2024/04/19 18:34:51;;;;;;;;;;;;;;;;;;5382887;26;20259;-53
2024/04/19 18:37:19;;;;;;;;;;;;;;;;;;5410119;26;20251;-54
2024/04/19 18:39:45;;;;;;;;;;;;;;;;;;5427697;26;19929;-49
2024/04/19 18:42:11;;;;;;;;;;;;;;;;;;5412816;26;19936;-52
2024/04/19 18:44:37;;;;;;;;;;;;;;;;;;5420869;26;19928;-51
2024/04/19 18:47:03;;;;;;;;;;;;;;;;;;5383793;26;20258;-53
2024/04/19 18:49:29;;;;;;;;;;;;;;;;;;5426095;26;19936;-50
2024/04/19 18:51:56;;;;;;;;;;;;;;;;;;5426800;26;19935;-53
2024/04/19 18:54:22;;;;;;;;;;;;;;;;;;5448359;26;19928;-53
2024/04/19 18:56:48;;;;;;;;;;;;;;;;;;5424341;26;19940;-51
2024/04/19 18:59:14;;;;;;;;;;;;;;;;;;5417858;26;19928;-52
2024/04/19 19:01:40;;;;;;;;;;;;;;;;;;5448191;26;19929;-54
2024/04/19 19:04:06;;;;;;;;;;;;;;;;;;5430980;26;19929;-54
2024/04/19 19:06:31;;;;;;;;;;;;;;;;;;5378449;26;19937;-53
2024/04/19 19:08:57;;;;;;;;;;;;;;;;;;5419275;26;19928;-53
2024/04/19 19:11:24;;;;;;;;;;;;;;;;;;5443248;26;19936;-54
2024/04/19 19:13:50;;;;;;;;;;;;;;;;;;5430430;26;19937;-52
2024/04/19 19:16:16;;;;;;;;;;;;;;;;;;5413668;26;20001;-53
2024/04/19 19:18:42;;;;;;;;;;;;;;;;;;5413705;26;20011;-52
2024/04/19 19:21:08;;;;;;;;;;;;;;;;;;5421059;26;19937;-50
2024/04/19 19:23:34;;;;;;;;;;;;;;;;;;5381732;26;20274;-54
2024/04/19 19:25:59;;;;;;;;;;;;;;;;;;5412316;26;19937;-54
2024/04/19 19:28:25;;;;;;;;;;;;;;;;;;5412151;26;19929;-54
2024/04/19 19:30:52;;;;;;;;;;;;;;;;;;5438920;26;20351;-51
2024/04/19 19:33:18;;;;;;;;;;;;;;;;;;5396708;26;19928;-52
2024/04/19 19:35:44;;;;;;;;;;;;;;;;;;5427301;26;20370;-53
2024/04/19 19:38:10;;;;;;;;;;;;;;;;;;5430128;26;19928;-54
2024/04/19 19:40:36;;;;;;;;;;;;;;;;;;5384410;26;20369;-53
2024/04/19 19:43:02;;;;;;;;;;;;;;;;;;5418936;26;20054;-50
2024/04/19 19:45:28;;;;;;;;;;;;;;;;;;5446827;26;20354;-52
2024/04/19 19:47:54;;;;;;;;;;;;;;;;;;5437776;26;19933;-53
2024/04/19 19:50:20;;;;;;;;;;;;;;;;;;5444586;26;19957;-52
2024/04/19 19:52:45;;;;;;;;;;;;;;;;;;5413503;26;19937;-53
2024/04/19 19:55:11;;;;;;;;;;;;;;;;;;5391045;26;19933;-54
2024/04/19 19:57:37;;;;;;;;;;;;;;;;;;5417367;26;20343;-52
2024/04/19 20:05:45;;;;;;;;;;;;;;;;;;5410663;26;19932;-52
2024/04/19 20:08:11;;;;;;;;;;;;;;;;;;5440352;26;19928;-52
2024/04/19 20:10:37;;;;;;;;;;;;;;;;;;5440447;26;19935;-53
2024/04/19 20:13:03;;;;;;;;;;;;;;;;;;5443256;26;20430;-53
2024/04/19 20:15:29;;;;;;;;;;;;;;;;;;5441111;26;19929;-51
2024/04/19 20:17:54;;;;;;;;;;;;;;;;;;5395495;26;19956;-53
2024/04/19 20:20:20;;;;;;;;;;;;;;;;;;5439516;26;20014;-50
2024/04/19 20:22:46;;;;;;;;;;;;;;;;;;5449074;26;19935;-53
2024/04/19 20:25:12;;;;;;;;;;;;;;;;;;5448330;26;19928;-54
2024/04/19 20:27:38;;;;;;;;;;;;;;;;;;5415122;26;19944;-52
2024/04/19 20:30:04;;;;;;;;;;;;;;;;;;5438285;26;19935;-53
2024/04/19 20:32:30;;;;;;;;;;;;;;;;;;5421864;26;19929;-51
2024/04/19 20:34:56;;;;;;;;;;;;;;;;;;5448855;26;19932;-54
2024/04/19 20:37:22;;;;;;;;;;;;;;;;;;5441545;26;20001;-52
2024/04/19 20:39:48;;;;;;;;;;;;;;;;;;5405051;26;19928;-52
2024/04/19 20:42:14;;;;;;;;;;;;;;;;;;5384897;26;19929;-54
2024/04/19 20:44:39;;;;;;;;;;;;;;;;;;5422102;26;19933;-53
2024/04/19 20:47:05;;;;;;;;;;;;;;;;;;5409987;26;19936;-53
2024/04/19 20:49:31;;;;;;;;;;;;;;;;;;5432198;26;19936;-53
2024/04/19 20:51:57;;;;;;;;;;;;;;;;;;5415705;26;20317;-53
2024/04/19 20:54:23;;;;;;;;;;;;;;;;;;5414604;26;19929;-50
2024/04/19 20:56:49;;;;;;;;;;;;;;;;;;5414589;26;19936;-52
2024/04/19 20:59:15;;;;;;;;;;;;;;;;;;5414907;26;19961;-53
2024/04/19 21:01:41;;;;;;;;;;;;;;;;;;5415548;26;19936;-51
2024/04/19 21:04:07;;;;;;;;;;;;;;;;;;5415525;26;19975;-53
2024/04/19 21:06:32;;;;;;;;;;;;;;;;;;5415830;26;19929;-53
2024/04/19 21:08:58;;;;;;;;;;;;;;;;;;5415661;26;19929;-51
2024/04/19 21:11:24;;;;;;;;;;;;;;;;;;5415790;26;19929;-50
2024/04/19 21:13:50;;;;;;;;;;;;;;;;;;5384603;26;19929;-53
2024/04/19 21:16:16;;;;;;;;;;;;;;;;;;5415235;26;19940;-53
2024/04/19 21:18:42;;;;;;;;;;;;;;;;;;5415775;26;20346;-53
2024/04/19 21:21:08;;;;;;;;;;;;;;;;;;5415142;26;19929;-52
2024/04/19 21:23:34;;;;;;;;;;;;;;;;;;5416052;26;19929;-52
2024/04/19 21:25:59;;;;;;;;;;;;;;;;;;5415357;26;19940;-52
2024/04/19 21:28:26;;;;;;;;;;;;;;;;;;5415691;26;19929;-53
2024/04/19 21:30:52;;;;;;;;;;;;;;;;;;5383954;26;19998;-51
2024/04/19 21:33:18;;;;;;;;;;;;;;;;;;5415650;26;19941;-54
2024/04/19 21:35:44;;;;;;;;;;;;;;;;;;5415095;26;19928;-50
2024/04/19 21:38:09;;;;;;;;;;;;;;;;;;5415054;26;19930;-50
2024/04/19 21:40:37;;;;;;;;;;;;;;;;;;5415484;26;19936;-52
2024/04/19 21:43:03;;;;;;;;;;;;;;;;;;5413503;26;20383;-51
2024/04/19 21:45:30;;;;;;;;;;;;;;;;;;5415110;26;19936;-50
2024/04/19 21:47:56;;;;;;;;;;;;;;;;;;5414725;26;19958;-51
2024/04/19 21:50:22;;;;;;;;;;;;;;;;;;5414987;26;19929;-53
2024/04/19 21:52:48;;;;;;;;;;;;;;;;;;5415376;26;19941;-52
2024/04/19 21:55:14;;;;;;;;;;;;;;;;;;5414604;26;19929;-52
2024/04/19 21:57:40;;;;;;;;;;;;;;;;;;5415238;26;19929;-53
2024/04/19 22:00:06;;;;;;;;;;;;;;;;;;5414748;26;20018;-53
2024/04/19 22:02:32;;;;;;;;;;;;;;;;;;5415029;26;19979;-49